Time;durP1;ratioP1;P1;durP2;ratioP2;P2;SDS_P1;SDS_P2;PMS_P1;PMS_P2;Temp;Humidity;BMP_temperature;BMP_pressure;BME280_temperature;BME280_humidity;BME280_pressure;Samples;Min_cycle;Max_cycle;Signal;HPM_P1;HPM_P2
2022/12/01 00:02:20;;;;;;;32.20;12.93;;;;;;;;;;4751862;30;20034;-87
2022/12/01 00:04:48;;;;;;;22.77;10.93;;;;;;;;;;4731323;30;20041;-87
2022/12/01 00:07:15;;;;;;;27.90;12.52;;;;;;;;;;4742260;30;20089;-87
2022/12/01 00:12:25;;;;;;;25.48;11.27;;;;;;;;;;4758328;30;20563;-86
2022/12/01 00:14:59;;;;;;;26.45;12.05;;;;;;;;;;4749597;30;20040;-87
2022/12/01 00:17:27;;;;;;;26.33;11.68;;;;;;;;;;4757998;30;20028;-87
2022/12/01 00:19:52;;;;;;;23.80;11.68;;;;;;;;;;4763954;30;20035;-87
2022/12/01 00:22:18;;;;;;;24.33;11.77;;;;;;;;;;4748299;30;20502;-88
2022/12/01 00:24:43;;;;;;;24.85;10.98;;;;;;;;;;4762867;30;20035;-88
2022/12/01 00:27:09;;;;;;;24.42;11.98;;;;;;;;;;4747340;30;20138;-87
2022/12/01 00:29:34;;;;;;;22.45;10.75;;;;;;;;;;4750174;30;20038;-87
2022/12/01 00:31:59;;;;;;;24.77;11.02;;;;;;;;;;4758487;30;20127;-85
2022/12/01 00:34:25;;;;;;;23.42;10.77;;;;;;;;;;4758136;30;20556;-85
2022/12/01 00:36:51;;;;;;;26.70;10.88;;;;;;;;;;4753340;30;20074;-86
2022/12/01 00:39:17;;;;;;;24.90;10.93;;;;;;;;;;4763321;30;20063;-87
2022/12/01 00:41:42;;;;;;;25.75;11.00;;;;;;;;;;4749161;30;20062;-86
2022/12/01 00:44:07;;;;;;;24.98;10.05;;;;;;;;;;4749886;30;20046;-88
2022/12/01 00:46:33;;;;;;;23.30;10.80;;;;;;;;;;4754281;30;20118;-87
2022/12/01 00:48:58;;;;;;;25.45;11.43;;;;;;;;;;4746445;30;20486;-87
2022/12/01 00:51:24;;;;;;;23.92;10.82;;;;;;;;;;4744394;30;20032;-88
2022/12/01 00:53:49;;;;;;;23.83;10.68;;;;;;;;;;4736352;30;20023;-86
2022/12/01 00:56:14;;;;;;;24.50;10.50;;;;;;;;;;4762278;30;20040;-87
2022/12/01 00:58:42;;;;;;;24.88;11.07;;;;;;;;;;4750684;30;20032;-88
2022/12/01 01:01:07;;;;;;;23.35;10.85;;;;;;;;;;4751593;30;20435;-88
2022/12/01 01:03:33;;;;;;;27.23;11.43;;;;;;;;;;4767968;30;20058;-87
2022/12/01 01:06:05;;;;;;;22.40;10.93;;;;;;;;;;4747319;30;20035;-87
2022/12/01 01:08:30;;;;;;;29.80;11.52;;;;;;;;;;4767003;30;20062;-87
2022/12/01 01:10:58;;;;;;;26.27;11.75;;;;;;;;;;4761699;30;20107;-86
2022/12/01 01:13:23;;;;;;;22.42;11.27;;;;;;;;;;4753515;30;20486;-87
2022/12/01 01:16:08;;;;;;;25.33;10.88;;;;;;;;;;4752515;30;20039;-87
2022/12/01 01:18:34;;;;;;;22.20;10.68;;;;;;;;;;4749412;30;20032;-86
2022/12/01 01:21:06;;;;;;;23.75;10.65;;;;;;;;;;4758463;30;20105;-87
2022/12/01 01:23:31;;;;;;;22.73;11.20;;;;;;;;;;4750450;30;20115;-87
2022/12/01 01:26:15;;;;;;;24.42;10.88;;;;;;;;;;4750568;30;20167;-87
2022/12/01 01:28:40;;;;;;;24.33;10.93;;;;;;;;;;4744234;30;20428;-88
2022/12/01 01:31:07;;;;;;;26.52;11.63;;;;;;;;;;4744869;30;20126;-86
2022/12/01 01:33:33;;;;;;;24.40;10.70;;;;;;;;;;4748107;30;20067;-87
2022/12/01 01:35:59;;;;;;;23.25;10.73;;;;;;;;;;4744179;30;20478;-86
2022/12/01 01:38:24;;;;;;;23.65;11.05;;;;;;;;;;4745470;30;20039;-87
2022/12/01 01:40:50;;;;;;;28.60;11.75;;;;;;;;;;4748081;30;21038;-88
2022/12/01 01:43:36;;;;;;;28.60;12.27;;;;;;;;;;4747286;30;20513;-88
2022/12/01 01:46:01;;;;;;;25.25;11.57;;;;;;;;;;4754499;30;20035;-86
2022/12/01 01:48:27;;;;;;;32.83;12.57;;;;;;;;;;4757434;30;20035;-88
2022/12/01 01:50:52;;;;;;;26.15;13.25;;;;;;;;;;4750254;30;20074;-86
2022/12/01 01:53:18;;;;;;;29.20;12.55;;;;;;;;;;4742060;30;20036;-87
2022/12/01 01:55:43;;;;;;;32.05;13.52;;;;;;;;;;4741602;30;20031;-88
2022/12/01 01:58:10;;;;;;;29.23;13.23;;;;;;;;;;4761047;30;20020;-87
2022/12/01 02:00:38;;;;;;;29.63;12.95;;;;;;;;;;4756423;30;20046;-87
2022/12/01 02:03:03;;;;;;;25.33;11.48;;;;;;;;;;4753787;30;20424;-88
2022/12/01 02:05:32;;;;;;;30.33;13.88;;;;;;;;;;4757265;30;20032;-89
2022/12/01 02:08:00;;;;;;;28.50;12.57;;;;;;;;;;4738273;30;20112;-87
2022/12/01 02:10:50;;;;;;;29.13;12.20;;;;;;;;;;4764338;30;20122;-88
2022/12/01 02:13:50;;;;;;;26.98;12.15;;;;;;;;;;4758131;30;20043;-87
2022/12/01 02:16:24;;;;;;;27.73;11.65;;;;;;;;;;4740745;30;20036;-85
2022/12/01 02:19:29;;;;;;;24.85;11.55;;;;;;;;;;4746586;30;20043;-87
2022/12/01 02:22:16;;;;;;;25.17;10.82;;;;;;;;;;4757394;30;20040;-87
2022/12/01 02:25:05;;;;;;;26.33;10.82;;;;;;;;;;4759360;30;20100;-88
2022/12/01 02:27:55;;;;;;;27.02;11.90;;;;;;;;;;4714620;30;20052;-85
2022/12/01 02:30:33;;;;;;;23.88;11.10;;;;;;;;;;4759088;30;20042;-88
2022/12/01 02:32:58;;;;;;;24.05;10.82;;;;;;;;;;4745868;30;20047;-87
2022/12/01 02:35:33;;;;;;;22.83;11.20;;;;;;;;;;4746213;30;20047;-87
2022/12/01 02:38:10;;;;;;;23.63;10.35;;;;;;;;;;4745458;30;20484;-87
2022/12/01 02:40:53;;;;;;;24.52;12.00;;;;;;;;;;4755884;30;20036;-88
2022/12/01 02:43:43;;;;;;;26.95;10.88;;;;;;;;;;4749881;30;20043;-88
2022/12/01 02:46:22;;;;;;;23.10;11.10;;;;;;;;;;4744235;30;20070;-88
2022/12/01 02:48:52;;;;;;;23.02;10.48;;;;;;;;;;4745175;30;20047;-86
2022/12/01 02:51:23;;;;;;;24.73;12.18;;;;;;;;;;4752833;30;20042;-87
2022/12/01 02:53:49;;;;;;;22.50;11.13;;;;;;;;;;4750945;30;20032;-87
2022/12/01 02:56:19;;;;;;;23.90;10.70;;;;;;;;;;4745731;30;20044;-87
2022/12/01 02:58:45;;;;;;;23.02;11.65;;;;;;;;;;4755051;30;20115;-86
2022/12/01 03:01:45;;;;;;;24.80;11.90;;;;;;;;;;4755211;30;20036;-87
2022/12/01 03:04:45;;;;;;;20.92;10.68;;;;;;;;;;4742972;30;20060;-87
2022/12/01 03:07:18;;;;;;;25.92;11.60;;;;;;;;;;4670626;30;20141;-88
2022/12/01 03:09:49;;;;;;;25.35;11.25;;;;;;;;;;4745412;30;20027;-86
2022/12/01 03:12:22;;;;;;;26.13;11.35;;;;;;;;;;4744197;30;20093;-87
2022/12/01 03:15:17;;;;;;;20.90;10.32;;;;;;;;;;4739430;30;20086;-86
2022/12/01 03:17:53;;;;;;;25.30;11.57;;;;;;;;;;4756760;30;20046;-87
2022/12/01 03:20:41;;;;;;;21.92;10.75;;;;;;;;;;4739106;30;20490;-87
2022/12/01 03:23:17;;;;;;;22.02;11.32;;;;;;;;;;4742631;30;20027;-87
2022/12/01 03:25:47;;;;;;;24.90;11.23;;;;;;;;;;4751390;30;20036;-88
2022/12/01 03:28:17;;;;;;;21.10;9.80;;;;;;;;;;4755751;30;20031;-86
2022/12/01 03:30:45;;;;;;;24.48;11.52;;;;;;;;;;4756383;30;20040;-85
2022/12/01 03:33:18;;;;;;;24.63;11.45;;;;;;;;;;4745777;30;20460;-88
2022/12/01 03:35:51;;;;;;;25.83;11.02;;;;;;;;;;4756057;30;20478;-88
2022/12/01 03:38:23;;;;;;;24.08;11.93;;;;;;;;;;4754455;30;20027;-87
2022/12/01 03:40:54;;;;;;;20.67;10.73;;;;;;;;;;4753709;30;20143;-87
2022/12/01 03:43:26;;;;;;;22.95;11.55;;;;;;;;;;4740830;30;20032;-88
2022/12/01 03:46:24;;;;;;;26.23;12.10;;;;;;;;;;4758275;30;20505;-88
2022/12/01 03:48:53;;;;;;;27.77;12.07;;;;;;;;;;4739239;30;20044;-87
2022/12/01 03:51:24;;;;;;;28.45;12.60;;;;;;;;;;4744866;30;20050;-88
2022/12/01 03:54:07;;;;;;;25.60;12.20;;;;;;;;;;4738374;30;20122;-86
2022/12/01 03:56:41;;;;;;;23.48;11.07;;;;;;;;;;4754478;30;20062;-86
2022/12/01 03:59:08;;;;;;;24.98;11.80;;;;;;;;;;4755751;30;20101;-87
2022/12/01 04:01:34;;;;;;;28.13;12.90;;;;;;;;;;4734976;30;20043;-88
2022/12/01 04:04:11;;;;;;;25.85;12.88;;;;;;;;;;4744006;30;20027;-87
2022/12/01 04:06:39;;;;;;;27.52;12.23;;;;;;;;;;4739524;30;20832;-88
2022/12/01 04:09:04;;;;;;;26.13;12.07;;;;;;;;;;4739895;30;20044;-87
2022/12/01 04:14:13;;;;;;;28.83;13.13;;;;;;;;;;4753671;30;20042;-86
2022/12/01 04:16:39;;;;;;;28.42;12.55;;;;;;;;;;4739715;30;20428;-85
2022/12/01 04:19:04;;;;;;;24.10;11.98;;;;;;;;;;4740526;30;20496;-87
2022/12/01 04:21:30;;;;;;;24.13;11.18;;;;;;;;;;4743722;30;20100;-87
2022/12/01 04:24:01;;;;;;;25.50;12.38;;;;;;;;;;4751920;30;20039;-88
2022/12/01 04:26:29;;;;;;;28.35;13.98;;;;;;;;;;4742480;30;20039;-87
2022/12/01 04:28:54;;;;;;;26.40;11.93;;;;;;;;;;4745994;30;20082;-86
2022/12/01 04:31:20;;;;;;;34.38;13.80;;;;;;;;;;4749039;30;20044;-86
2022/12/01 04:33:45;;;;;;;28.23;12.18;;;;;;;;;;4741007;30;20535;-87
2022/12/01 04:36:11;;;;;;;26.40;12.40;;;;;;;;;;4742770;30;20055;-88
2022/12/01 04:38:36;;;;;;;30.42;13.48;;;;;;;;;;4741127;30;20504;-87
2022/12/01 04:41:20;;;;;;;27.50;13.02;;;;;;;;;;4745842;30;20523;-87
2022/12/01 04:43:45;;;;;;;27.67;12.70;;;;;;;;;;4756791;30;20549;-86
2022/12/01 04:46:11;;;;;;;27.98;12.27;;;;;;;;;;4750051;30;20118;-87
2022/12/01 04:48:37;;;;;;;27.08;12.45;;;;;;;;;;4762541;30;20059;-87
2022/12/01 04:51:04;;;;;;;29.92;13.10;;;;;;;;;;4743776;30;20036;-86
2022/12/01 04:53:30;;;;;;;31.17;13.50;;;;;;;;;;4758955;30;20046;-87
2022/12/01 04:55:56;;;;;;;28.23;11.93;;;;;;;;;;4749479;30;20039;-87
2022/12/01 04:58:21;;;;;;;29.27;12.18;;;;;;;;;;4751183;30;20035;-88
2022/12/01 05:00:47;;;;;;;30.38;12.82;;;;;;;;;;4758843;30;20048;-88
2022/12/01 05:03:12;;;;;;;25.30;11.95;;;;;;;;;;4756811;30;20386;-87
2022/12/01 05:05:37;;;;;;;27.25;12.88;;;;;;;;;;4743207;30;20046;-88
2022/12/01 05:08:03;;;;;;;27.30;13.07;;;;;;;;;;4756193;30;20059;-86
2022/12/01 05:10:28;;;;;;;25.77;11.77;;;;;;;;;;4755401;30;20023;-85
2022/12/01 05:12:56;;;;;;;28.92;12.40;;;;;;;;;;4735493;30;20036;-87
2022/12/01 05:15:21;;;;;;;30.30;12.32;;;;;;;;;;4755112;30;20653;-86
2022/12/01 05:17:47;;;;;;;27.95;13.40;;;;;;;;;;4760338;30;20038;-87
2022/12/01 05:23:02;;;;;;;25.83;11.93;;;;;;;;;;4754813;30;20115;-87
2022/12/01 05:25:27;;;;;;;25.92;11.75;;;;;;;;;;4750532;30;20043;-87
2022/12/01 05:27:53;;;;;;;27.05;12.27;;;;;;;;;;4755054;30;20067;-85
2022/12/01 05:30:18;;;;;;;29.98;12.65;;;;;;;;;;4749916;30;20031;-87
2022/12/01 05:32:44;;;;;;;28.27;11.55;;;;;;;;;;4741106;30;20027;-88
2022/12/01 05:35:09;;;;;;;29.50;13.32;;;;;;;;;;4746460;30;20040;-85
2022/12/01 05:37:34;;;;;;;28.38;11.80;;;;;;;;;;4755133;30;20404;-87
2022/12/01 05:40:00;;;;;;;30.92;13.43;;;;;;;;;;4738343;30;20509;-87
2022/12/01 05:42:26;;;;;;;28.35;12.77;;;;;;;;;;4751293;30;20691;-87
2022/12/01 05:44:51;;;;;;;27.15;12.32;;;;;;;;;;4740933;30;20051;-87
2022/12/01 05:47:17;;;;;;;26.65;12.63;;;;;;;;;;4742578;30;20418;-87
2022/12/01 05:49:42;;;;;;;27.27;12.00;;;;;;;;;;4754552;30;20031;-86
2022/12/01 05:52:08;;;;;;;27.48;12.50;;;;;;;;;;4738381;30;20040;-86
2022/12/01 05:54:33;;;;;;;28.58;12.52;;;;;;;;;;4756240;30;20032;-87
2022/12/01 05:56:58;;;;;;;27.33;12.52;;;;;;;;;;4741856;30;20505;-87
2022/12/01 05:59:24;;;;;;;27.67;12.80;;;;;;;;;;4742933;30;20031;-88
2022/12/01 06:01:49;;;;;;;26.45;12.18;;;;;;;;;;4744077;30;20040;-88
2022/12/01 06:04:15;;;;;;;28.30;12.30;;;;;;;;;;4740709;30;20043;-88
2022/12/01 06:06:40;;;;;;;29.23;12.95;;;;;;;;;;4707035;30;1092776;-86
2022/12/01 06:09:07;;;;;;;25.58;11.65;;;;;;;;;;4740834;30;20047;-87
2022/12/01 06:11:32;;;;;;;26.13;12.30;;;;;;;;;;4757399;30;20040;-87
2022/12/01 06:13:57;;;;;;;27.05;12.77;;;;;;;;;;4737386;30;20041;-87
2022/12/01 06:16:23;;;;;;;31.25;13.55;;;;;;;;;;4742111;30;20040;-88
2022/12/01 06:18:48;;;;;;;26.00;12.18;;;;;;;;;;4751765;30;20036;-87
2022/12/01 06:21:13;;;;;;;26.98;12.13;;;;;;;;;;4740000;30;20031;-87
2022/12/01 06:23:39;;;;;;;28.33;13.63;;;;;;;;;;4745809;30;20055;-87
2022/12/01 06:26:04;;;;;;;26.67;12.18;;;;;;;;;;4741545;30;20036;-87
2022/12/01 06:28:30;;;;;;;28.58;12.30;;;;;;;;;;4746343;30;20561;-87
2022/12/01 06:30:55;;;;;;;26.40;11.90;;;;;;;;;;4760919;30;20085;-87
2022/12/01 06:33:20;;;;;;;31.88;12.93;;;;;;;;;;4757241;30;20036;-87
2022/12/01 06:35:46;;;;;;;24.80;11.88;;;;;;;;;;4747882;30;20504;-88
2022/12/01 06:38:11;;;;;;;32.00;12.80;;;;;;;;;;4748639;30;20036;-87
2022/12/01 06:40:37;;;;;;;30.63;12.50;;;;;;;;;;4758097;30;20042;-88
2022/12/01 06:43:02;;;;;;;24.92;12.10;;;;;;;;;;4759387;30;20039;-87
2022/12/01 06:45:29;;;;;;;29.30;11.77;;;;;;;;;;4756367;30;20097;-88
2022/12/01 06:47:56;;;;;;;26.67;12.07;;;;;;;;;;4740795;30;20501;-87
2022/12/01 06:50:22;;;;;;;27.33;12.25;;;;;;;;;;4747131;30;20035;-88
2022/12/01 06:52:48;;;;;;;26.25;12.30;;;;;;;;;;4757259;30;20128;-86
2022/12/01 06:55:13;;;;;;;24.63;11.98;;;;;;;;;;4731830;30;20035;-88
2022/12/01 06:57:39;;;;;;;23.17;12.13;;;;;;;;;;4754739;30;20436;-87
2022/12/01 07:00:05;;;;;;;29.08;12.93;;;;;;;;;;4737512;30;20552;-87
2022/12/01 07:02:31;;;;;;;27.77;12.68;;;;;;;;;;4747461;30;20031;-89
2022/12/01 07:04:56;;;;;;;29.63;13.63;;;;;;;;;;4752251;30;20039;-87
2022/12/01 07:07:22;;;;;;;27.83;13.10;;;;;;;;;;4757619;30;20051;-86
2022/12/01 07:09:47;;;;;;;29.85;12.48;;;;;;;;;;4743829;30;20514;-87
2022/12/01 07:12:13;;;;;;;24.90;12.15;;;;;;;;;;4743234;30;20669;-88
2022/12/01 07:14:41;;;;;;;22.98;11.63;;;;;;;;;;4769986;30;20031;-88
2022/12/01 07:17:06;;;;;;;27.70;12.45;;;;;;;;;;4749239;30;20497;-88
2022/12/01 07:19:32;;;;;;;20.67;11.43;;;;;;;;;;4758022;30;20033;-88
2022/12/01 07:21:57;;;;;;;29.80;13.43;;;;;;;;;;4762680;30;20024;-88
2022/12/01 07:24:22;;;;;;;26.40;13.13;;;;;;;;;;4765727;30;20034;-89
2022/12/01 07:26:48;;;;;;;24.85;12.48;;;;;;;;;;4765486;30;20126;-86
2022/12/01 07:29:13;;;;;;;24.92;12.05;;;;;;;;;;4751112;30;20489;-90
2022/12/01 07:31:38;;;;;;;28.85;12.75;;;;;;;;;;4754541;30;20035;-88
2022/12/01 07:34:05;;;;;;;23.23;11.90;;;;;;;;;;4748960;30;20040;-88
2022/12/01 07:36:30;;;;;;;25.73;11.75;;;;;;;;;;4750931;30;20135;-89
2022/12/01 07:38:56;;;;;;;27.48;12.43;;;;;;;;;;4750701;30;20118;-89
2022/12/01 07:41:21;;;;;;;24.80;12.73;;;;;;;;;;4760544;30;20071;-88
2022/12/01 07:43:48;;;;;;;26.02;12.25;;;;;;;;;;4752275;30;20042;-89
2022/12/01 07:46:16;;;;;;;24.40;11.98;;;;;;;;;;4756109;30;20031;-89
2022/12/01 07:48:42;;;;;;;29.33;12.52;;;;;;;;;;4763666;30;20050;-88
2022/12/01 07:51:10;;;;;;;25.35;12.00;;;;;;;;;;4753138;30;20044;-88
2022/12/01 07:53:35;;;;;;;26.40;12.40;;;;;;;;;;4770483;30;20040;-87
2022/12/01 07:56:04;;;;;;;23.35;12.70;;;;;;;;;;4753161;30;20034;-88
2022/12/01 07:58:30;;;;;;;25.55;11.90;;;;;;;;;;4771801;30;20040;-88
2022/12/01 08:00:55;;;;;;;25.05;11.60;;;;;;;;;;4754636;30;20035;-89
2022/12/01 08:03:21;;;;;;;27.02;12.82;;;;;;;;;;4753610;30;20035;-86
2022/12/01 08:05:57;;;;;;;29.73;12.70;;;;;;;;;;4753242;30;20043;-88
2022/12/01 08:08:23;;;;;;;31.13;12.93;;;;;;;;;;4758933;30;20047;-88
2022/12/01 08:10:48;;;;;;;24.55;11.20;;;;;;;;;;4748577;30;20040;-86
2022/12/01 08:13:14;;;;;;;24.90;12.07;;;;;;;;;;4747456;30;20055;-88
2022/12/01 08:15:39;;;;;;;27.73;13.02;;;;;;;;;;4763138;30;20036;-88
2022/12/01 08:18:04;;;;;;;27.08;12.65;;;;;;;;;;4771336;30;20389;-88
2022/12/01 08:20:30;;;;;;;24.25;11.52;;;;;;;;;;4753758;30;20035;-88
2022/12/01 08:22:59;;;;;;;22.75;11.50;;;;;;;;;;4748621;30;20034;-88
2022/12/01 08:25:24;;;;;;;24.48;11.55;;;;;;;;;;4747198;30;20035;-88
2022/12/01 08:27:50;;;;;;;23.98;11.98;;;;;;;;;;4753062;30;20463;-88
2022/12/01 08:30:15;;;;;;;25.60;11.80;;;;;;;;;;4754442;30;20027;-88
2022/12/01 08:32:41;;;;;;;23.27;11.57;;;;;;;;;;4751069;30;20040;-88
2022/12/01 08:35:07;;;;;;;25.73;12.02;;;;;;;;;;4764085;30;20035;-89
2022/12/01 08:37:32;;;;;;;29.10;12.40;;;;;;;;;;4752280;30;20028;-89
2022/12/01 08:39:58;;;;;;;25.73;12.05;;;;;;;;;;4759051;30;20044;-89
2022/12/01 08:42:23;;;;;;;25.33;12.68;;;;;;;;;;4760956;30;20027;-88
2022/12/01 08:44:48;;;;;;;29.55;12.93;;;;;;;;;;4751979;30;20046;-88
2022/12/01 08:47:14;;;;;;;28.10;13.07;;;;;;;;;;4746271;30;20589;-87
2022/12/01 08:49:39;;;;;;;31.75;13.55;;;;;;;;;;4756537;30;20042;-89
2022/12/01 08:52:04;;;;;;;26.73;12.93;;;;;;;;;;4753084;30;20039;-88
2022/12/01 08:54:30;;;;;;;29.08;12.85;;;;;;;;;;4766635;30;20585;-89
2022/12/01 08:56:55;;;;;;;26.58;12.73;;;;;;;;;;4755176;30;20035;-88
2022/12/01 08:59:20;;;;;;;29.20;14.10;;;;;;;;;;4766088;30;20398;-90
2022/12/01 09:01:52;;;;;;;27.77;13.20;;;;;;;;;;4766718;30;20089;-88
2022/12/01 09:04:23;;;;;;;27.83;12.30;;;;;;;;;;4744286;30;20063;-87
2022/12/01 09:06:50;;;;;;;29.75;12.70;;;;;;;;;;4750379;30;20070;-87
2022/12/01 09:09:22;;;;;;;27.63;13.20;;;;;;;;;;4745700;30;20032;-87
2022/12/01 09:11:51;;;;;;;25.95;12.27;;;;;;;;;;4749807;30;20109;-88
2022/12/01 09:14:17;;;;;;;27.63;12.43;;;;;;;;;;4757499;30;20124;-89
2022/12/01 09:16:44;;;;;;;29.55;12.95;;;;;;;;;;4763666;30;20517;-88
2022/12/01 09:19:09;;;;;;;31.50;13.32;;;;;;;;;;4755282;30;20390;-88
2022/12/01 09:21:38;;;;;;;31.95;14.35;;;;;;;;;;4752050;30;20028;-88
2022/12/01 09:24:05;;;;;;;28.17;12.73;;;;;;;;;;4782425;30;20114;-88
2022/12/01 09:26:32;;;;;;;30.77;15.00;;;;;;;;;;4763533;30;20539;-88
2022/12/01 09:29:01;;;;;;;31.90;13.43;;;;;;;;;;4759324;30;20118;-87
2022/12/01 09:31:27;;;;;;;29.33;13.73;;;;;;;;;;4774546;30;20513;-89
2022/12/01 09:34:01;;;;;;;34.20;14.98;;;;;;;;;;4759435;30;20044;-89
2022/12/01 09:36:27;;;;;;;36.08;14.27;;;;;;;;;;4761084;30;20494;-85
2022/12/01 09:38:53;;;;;;;30.42;14.73;;;;;;;;;;4773858;30;20098;-88
2022/12/01 09:41:21;;;;;;;36.45;14.48;;;;;;;;;;4756945;30;20032;-88
2022/12/01 09:43:58;;;;;;;29.55;13.13;;;;;;;;;;4755927;30;20046;-88
2022/12/01 09:46:36;;;;;;;30.75;12.77;;;;;;;;;;4755996;30;20035;-88
2022/12/01 09:49:03;;;;;;;29.75;13.00;;;;;;;;;;4761196;30;20043;-89
2022/12/01 09:51:29;;;;;;;32.35;12.05;;;;;;;;;;4756492;30;20496;-88
2022/12/01 09:53:58;;;;;;;31.20;13.57;;;;;;;;;;4768087;30;20474;-88
2022/12/01 09:56:31;;;;;;;29.00;12.75;;;;;;;;;;4778789;30;20039;-88
2022/12/01 09:59:05;;;;;;;31.35;14.05;;;;;;;;;;4756998;30;20031;-88
2022/12/01 10:01:41;;;;;;;30.80;12.88;;;;;;;;;;4758037;30;20040;-89
2022/12/01 10:04:42;;;;;;;29.73;13.98;;;;;;;;;;4771605;30;20566;-89
2022/12/01 10:07:25;;;;;;;26.05;12.77;;;;;;;;;;4745187;30;20589;-87
2022/12/01 10:10:01;;;;;;;33.45;13.82;;;;;;;;;;4745744;30;20070;-88
2022/12/01 10:12:33;;;;;;;33.15;13.18;;;;;;;;;;4753811;30;20563;-88
2022/12/01 10:15:38;;;;;;;29.25;13.80;;;;;;;;;;4752027;30;20119;-88
2022/12/01 10:18:21;;;;;;;38.30;14.57;;;;;;;;;;4751788;30;20047;-87
2022/12/01 10:21:16;;;;;;;28.50;12.30;;;;;;;;;;4750736;30;20028;-88
2022/12/01 10:24:00;;;;;;;30.45;13.60;;;;;;;;;;4777523;30;20043;-88
2022/12/01 10:26:31;;;;;;;30.08;13.80;;;;;;;;;;4770854;29;20053;-89
2022/12/01 10:29:35;;;;;;;30.63;13.70;;;;;;;;;;4754675;30;20035;-88
2022/12/01 10:32:08;;;;;;;34.13;13.75;;;;;;;;;;4761104;30;20074;-88
2022/12/01 10:34:37;;;;;;;35.90;15.07;;;;;;;;;;4766957;30;20449;-88
2022/12/01 10:37:03;;;;;;;32.78;14.38;;;;;;;;;;4758087;30;20485;-88
2022/12/01 10:39:36;;;;;;;31.90;13.95;;;;;;;;;;4770911;30;20156;-88
2022/12/01 10:42:07;;;;;;;30.23;13.68;;;;;;;;;;4770762;30;20036;-88
2022/12/01 10:44:34;;;;;;;34.13;14.77;;;;;;;;;;4758097;30;20042;-87
2022/12/01 10:46:59;;;;;;;34.78;14.73;;;;;;;;;;4762683;30;20440;-87
2022/12/01 10:49:37;;;;;;;36.30;15.13;;;;;;;;;;4780224;30;20076;-87
2022/12/01 10:52:03;;;;;;;33.78;13.95;;;;;;;;;;4766265;30;20027;-87
2022/12/01 10:54:39;;;;;;;37.58;15.27;;;;;;;;;;4758179;30;20036;-88
2022/12/01 10:57:12;;;;;;;35.85;14.80;;;;;;;;;;4770263;30;20107;-88
2022/12/01 10:59:49;;;;;;;37.45;15.18;;;;;;;;;;4758718;30;20540;-88
2022/12/01 11:02:20;;;;;;;34.58;15.15;;;;;;;;;;4753585;30;20161;-88
2022/12/01 11:04:56;;;;;;;33.90;13.95;;;;;;;;;;4765985;30;20478;-88
2022/12/01 11:07:28;;;;;;;37.95;15.07;;;;;;;;;;4779608;30;20051;-88
2022/12/01 11:10:05;;;;;;;41.20;15.60;;;;;;;;;;4782036;30;20034;-89
2022/12/01 11:12:32;;;;;;;34.78;15.65;;;;;;;;;;4753487;30;20486;-89
2022/12/01 11:14:58;;;;;;;38.63;15.63;;;;;;;;;;4771959;30;20028;-89
2022/12/01 11:17:39;;;;;;;33.42;15.77;;;;;;;;;;4762860;30;20030;-88
2022/12/01 11:20:23;;;;;;;34.78;14.88;;;;;;;;;;4767573;30;20044;-88
2022/12/01 11:22:48;;;;;;;32.08;14.52;;;;;;;;;;4754560;30;20456;-87
2022/12/01 11:25:20;;;;;;;34.53;14.63;;;;;;;;;;4770081;30;20028;-88
2022/12/01 11:27:53;;;;;;;37.20;15.20;;;;;;;;;;4761822;30;20494;-88
2022/12/01 11:30:28;;;;;;;34.25;14.57;;;;;;;;;;4770293;30;20070;-86
2022/12/01 11:32:56;;;;;;;32.90;15.23;;;;;;;;;;4758417;30;20059;-88
2022/12/01 11:35:29;;;;;;;35.25;15.05;;;;;;;;;;4759239;30;20032;-88
2022/12/01 11:37:56;;;;;;;33.17;14.68;;;;;;;;;;4767958;30;20489;-88
2022/12/01 11:40:29;;;;;;;33.38;15.60;;;;;;;;;;4752357;30;20047;-89
2022/12/01 11:43:05;;;;;;;41.87;16.10;;;;;;;;;;4763554;30;20042;-87
2022/12/01 11:45:35;;;;;;;36.35;14.02;;;;;;;;;;4773233;30;20271;-88
2022/12/01 11:48:19;;;;;;;33.83;14.73;;;;;;;;;;4757042;30;20058;-88
2022/12/01 11:51:00;;;;;;;36.25;15.60;;;;;;;;;;4753051;30;20130;-89
2022/12/01 11:53:33;;;;;;;34.10;14.48;;;;;;;;;;4770771;30;20321;-88
2022/12/01 11:56:19;;;;;;;38.80;15.50;;;;;;;;;;4757501;30;20142;-88
2022/12/01 11:58:47;;;;;;;30.58;13.43;;;;;;;;;;4775507;30;20257;-89
2022/12/01 12:01:25;;;;;;;32.03;15.05;;;;;;;;;;4769787;30;20031;-88
2022/12/01 12:04:23;;;;;;;33.65;14.45;;;;;;;;;;4763989;30;20027;-88
2022/12/01 12:07:26;;;;;;;33.28;15.48;;;;;;;;;;4755383;30;20105;-88
2022/12/01 12:10:26;;;;;;;32.93;14.27;;;;;;;;;;4765755;30;20455;-90
2022/12/01 12:13:28;;;;;;;35.65;14.75;;;;;;;;;;4756802;30;20036;-91
2022/12/01 12:16:04;;;;;;;33.97;15.18;;;;;;;;;;4752612;30;20485;-88
2022/12/01 12:18:29;;;;;;;32.50;14.38;;;;;;;;;;4761940;30;20065;-89
2022/12/01 12:21:13;;;;;;;32.83;14.80;;;;;;;;;;4773596;30;20031;-90
2022/12/01 12:24:08;;;;;;;32.08;14.43;;;;;;;;;;4770066;30;20040;-90
2022/12/01 12:26:40;;;;;;;34.17;14.63;;;;;;;;;;4781899;30;20394;-88
2022/12/01 12:29:47;;;;;;;34.50;14.60;;;;;;;;;;4771140;30;20162;-87
2022/12/01 12:32:43;;;;;;;27.20;12.13;;;;;;;;;;4745819;30;20040;-88
2022/12/01 12:35:30;;;;;;;37.90;14.70;;;;;;;;;;4756639;30;20036;-88
2022/12/01 12:38:33;;;;;;;32.20;14.32;;;;;;;;;;4775342;30;20027;-88
2022/12/01 12:41:23;;;;;;;33.65;13.57;;;;;;;;;;4774196;30;20085;-89
2022/12/01 12:44:13;;;;;;;28.42;12.95;;;;;;;;;;4752780;30;20387;-88
2022/12/01 12:46:53;;;;;;;33.85;14.23;;;;;;;;;;4752278;30;20043;-89
2022/12/01 12:49:36;;;;;;;33.17;13.70;;;;;;;;;;4769602;30;20028;-89
2022/12/01 12:52:29;;;;;;;29.30;14.00;;;;;;;;;;4755661;30;20042;-89
2022/12/01 12:55:02;;;;;;;27.67;13.48;;;;;;;;;;4749560;30;20559;-89
2022/12/01 12:57:32;;;;;;;34.83;14.07;;;;;;;;;;4753749;30;20452;-89
2022/12/01 13:00:01;;;;;;;29.88;13.52;;;;;;;;;;4757258;30;20042;-89
2022/12/01 13:02:42;;;;;;;31.25;14.27;;;;;;;;;;4775725;30;20027;-89
2022/12/01 13:05:26;;;;;;;30.10;14.07;;;;;;;;;;4752490;30;20063;-89
2022/12/01 13:07:54;;;;;;;29.05;13.10;;;;;;;;;;4775081;30;20065;-89
2022/12/01 13:10:42;;;;;;;24.67;12.32;;;;;;;;;;4761070;30;20035;-89
2022/12/01 13:13:36;;;;;;;34.35;13.95;;;;;;;;;;4774308;30;20052;-88
2022/12/01 13:16:05;;;;;;;31.67;13.73;;;;;;;;;;4755528;30;20028;-89
2022/12/01 13:18:45;;;;;;;31.27;13.40;;;;;;;;;;4768509;30;20032;-89
2022/12/01 13:21:15;;;;;;;29.42;12.32;;;;;;;;;;4754341;30;20097;-90
2022/12/01 13:23:42;;;;;;;27.30;12.85;;;;;;;;;;4777515;30;20503;-89
2022/12/01 13:26:09;;;;;;;28.60;12.73;;;;;;;;;;4769041;30;20119;-89
2022/12/01 13:28:49;;;;;;;31.95;12.52;;;;;;;;;;4776468;30;20047;-88
2022/12/01 13:31:16;;;;;;;31.67;14.13;;;;;;;;;;4761765;30;20077;-89
2022/12/01 13:33:59;;;;;;;29.15;13.55;;;;;;;;;;4764201;30;20052;-90
2022/12/01 13:36:26;;;;;;;27.00;12.18;;;;;;;;;;4776159;30;20027;-89
2022/12/01 13:39:03;;;;;;;28.92;12.82;;;;;;;;;;4782394;30;20046;-88
2022/12/01 13:41:32;;;;;;;26.17;12.18;;;;;;;;;;4760955;30;20038;-89
2022/12/01 13:44:07;;;;;;;27.55;11.70;;;;;;;;;;4771913;30;20035;-90
2022/12/01 13:46:41;;;;;;;25.88;13.20;;;;;;;;;;4778514;30;20488;-88
2022/12/01 13:49:46;;;;;;;30.10;14.27;;;;;;;;;;4764470;30;20451;-90
2022/12/01 13:52:20;;;;;;;32.60;13.30;;;;;;;;;;4688807;30;20066;-89
2022/12/01 13:55:06;;;;;;;29.80;12.88;;;;;;;;;;4678302;30;20037;-89
2022/12/01 13:57:33;;;;;;;30.23;13.45;;;;;;;;;;4745529;30;20444;-88
2022/12/01 13:59:58;;;;;;;31.58;13.18;;;;;;;;;;4755336;30;20031;-90
2022/12/01 14:02:26;;;;;;;31.92;14.40;;;;;;;;;;4755740;30;20088;-89
2022/12/01 14:04:52;;;;;;;29.38;13.90;;;;;;;;;;4756562;30;20024;-89
2022/12/01 14:07:22;;;;;;;31.73;14.02;;;;;;;;;;4773199;30;20056;-88
2022/12/01 14:09:54;;;;;;;28.20;13.05;;;;;;;;;;4754791;30;20039;-90
2022/12/01 14:12:29;;;;;;;30.60;13.00;;;;;;;;;;4755554;30;20035;-88
2022/12/01 14:15:22;;;;;;;30.52;13.75;;;;;;;;;;4763495;30;20117;-90
2022/12/01 14:17:59;;;;;;;28.92;12.90;;;;;;;;;;4765904;30;20085;-89
2022/12/01 14:20:26;;;;;;;27.33;13.02;;;;;;;;;;4755245;30;20032;-90
2022/12/01 14:23:17;;;;;;;28.52;13.60;;;;;;;;;;4781644;30;20092;-89
2022/12/01 14:25:57;;;;;;;26.27;12.07;;;;;;;;;;4756969;30;20036;-89
2022/12/01 14:28:54;;;;;;;25.70;12.13;;;;;;;;;;4774923;30;20550;-89
2022/12/01 14:31:21;;;;;;;27.95;12.57;;;;;;;;;;4760133;30;20046;-90
2022/12/01 14:34:02;;;;;;;30.23;12.70;;;;;;;;;;4754402;30;20036;-90
2022/12/01 14:36:35;;;;;;;28.80;13.32;;;;;;;;;;4748537;30;20043;-88
2022/12/01 14:39:16;;;;;;;27.08;12.38;;;;;;;;;;4771481;30;20122;-90
2022/12/01 14:41:44;;;;;;;27.27;13.27;;;;;;;;;;4748750;30;20031;-88
2022/12/01 14:44:15;;;;;;;28.20;13.70;;;;;;;;;;4753646;30;20088;-87
2022/12/01 14:46:47;;;;;;;27.88;12.55;;;;;;;;;;4754112;30;20507;-88
2022/12/01 14:49:18;;;;;;;28.42;12.88;;;;;;;;;;4755623;30;20126;-88
2022/12/01 14:51:49;;;;;;;29.27;14.02;;;;;;;;;;4760688;30;20474;-87